createdAt,value
2023-02-06T00:04:32.780Z,1.06
2023-02-06T00:09:34.507Z,0.94
2023-02-06T00:14:36.172Z,0.92
2023-02-06T00:19:38.141Z,0.94
2023-02-06T00:24:40.898Z,0.93
2023-02-06T00:29:44.923Z,0.80
2023-02-06T00:34:48.785Z,0.67
2023-02-06T00:39:50.750Z,0.71
2023-02-06T00:44:52.479Z,0.82
2023-02-06T00:49:54.464Z,0.85
2023-02-06T00:54:56.125Z,0.89
2023-02-06T00:59:58.075Z,0.90
2023-02-06T01:05:01.995Z,0.88
2023-02-06T01:10:09.574Z,0.85
2023-02-06T01:15:12.552Z,0.68
2023-02-06T01:20:16.347Z,0.54
2023-02-06T02:06:08.864Z,-0.05
2023-02-06T02:18:09.116Z,-0.29
2023-02-06T02:23:16.609Z,-0.37
2023-02-06T02:28:32.680Z,-0.45
2023-02-06T02:33:56.126Z,-0.47
2023-02-06T02:39:06.381Z,-0.48
2023-02-06T02:44:21.739Z,-0.46
2023-02-06T02:49:30.153Z,-0.47
2023-02-06T02:54:37.049Z,-0.49
2023-02-06T02:59:44.970Z,-0.54
2023-02-06T03:05:04.277Z,-0.56
2023-02-06T03:10:10.480Z,-0.61
2023-02-06T03:15:34.420Z,-0.64
2023-02-06T03:20:40.326Z,-0.63
2023-02-06T03:25:45.336Z,-0.63
2023-02-06T03:30:49.300Z,-0.68
2023-02-06T03:35:59.472Z,-0.68
2023-02-06T03:41:04.414Z,-0.69
2023-02-06T03:46:12.586Z,-0.70
2023-02-06T03:51:46.920Z,-0.71
2023-02-06T03:56:53.941Z,-0.75
2023-02-06T04:02:00.806Z,-0.77
2023-02-06T04:07:15.400Z,-0.78
2023-02-06T04:12:22.470Z,-0.76
2023-02-06T04:17:43.143Z,-0.75
2023-02-06T04:22:48.852Z,-0.76
2023-02-06T04:27:50.701Z,-0.75
2023-02-06T04:32:52.404Z,-0.85
2023-02-06T04:37:56.509Z,-0.80
2023-02-06T04:42:59.618Z,-0.79
2023-02-06T04:48:01.273Z,-0.88
2023-02-06T04:53:06.005Z,-1.00
2023-02-06T04:58:11.342Z,-0.99
2023-02-06T05:03:12.960Z,-1.00
2023-02-06T05:08:16.699Z,-1.03
2023-02-06T05:13:23.342Z,-0.95
2023-02-06T05:18:27.547Z,-0.89
2023-02-06T05:23:29.316Z,-0.91
2023-02-06T05:28:33.579Z,-0.92
2023-02-06T05:33:37.549Z,-0.79
2023-02-06T05:38:41.467Z,-0.66
2023-02-06T05:43:45.305Z,-0.48
2023-02-06T05:48:52.358Z,-0.39
2023-02-06T05:53:56.561Z,-0.32
2023-02-06T05:58:58.343Z,-0.25
2023-02-06T06:04:02.573Z,-0.11
2023-02-06T06:09:04.640Z,-0.02
2023-02-06T06:14:06.380Z,0.02
2023-02-06T06:19:08.325Z,0.07
2023-02-06T06:24:12.431Z,0.11
2023-02-06T06:29:14.183Z,0.16
2023-02-06T06:34:18.619Z,0.34
2023-02-06T06:39:22.531Z,0.48
2023-02-06T06:44:24.252Z,0.53
2023-02-06T06:49:29.075Z,0.55
2023-02-06T06:54:30.882Z,0.58
2023-02-06T06:59:34.846Z,0.58
2023-02-06T07:04:38.971Z,0.68
2023-02-06T07:09:42.894Z,0.76
2023-02-06T07:14:44.586Z,0.99
2023-02-06T07:19:48.173Z,0.99
2023-02-06T07:24:49.884Z,0.96
2023-02-06T07:29:51.613Z,1.03
2023-02-06T07:34:53.308Z,1.11
2023-02-06T07:39:59.004Z,1.14
2023-02-06T07:45:06.281Z,1.18
2023-02-06T07:50:10.900Z,1.24
2023-02-06T07:55:16.953Z,1.39
2023-02-06T08:00:22.406Z,1.46
2023-02-06T08:05:32.168Z,1.54
2023-02-06T08:10:33.935Z,1.58
2023-02-06T08:15:41.211Z,1.81
2023-02-06T08:20:42.987Z,2.09
2023-02-06T08:25:47.062Z,2.25
2023-02-06T08:30:51.351Z,2.48
2023-02-06T08:35:57.825Z,2.74
2023-02-06T08:40:59.844Z,3.14
2023-02-06T08:46:02.773Z,3.48
2023-02-06T08:51:06.574Z,3.84
2023-02-06T08:56:12.391Z,4.06
2023-02-06T09:01:16.607Z,4.16
2023-02-06T09:06:21.956Z,4.17
2023-02-06T09:11:28.898Z,4.20
2023-02-06T09:16:33.198Z,4.23
2023-02-06T09:21:38.052Z,4.27
2023-02-06T09:26:58.923Z,4.36
2023-02-06T09:32:04.650Z,4.53
2023-02-06T09:37:06.410Z,4.77
2023-02-06T09:42:21.344Z,4.93
2023-02-06T09:47:33.007Z,5.05
2023-02-06T09:53:16.421Z,5.34
2023-02-06T09:58:44.461Z,5.63
2023-02-06T10:03:57.027Z,5.71
2023-02-06T10:09:16.179Z,5.89
2023-02-06T10:14:31.592Z,5.90
2023-02-06T10:19:38.281Z,5.94
2023-02-06T10:24:46.491Z,6.07
2023-02-06T10:29:48.571Z,6.29
2023-02-06T10:35:10.646Z,6.28
2023-02-06T10:40:21.089Z,6.36
2023-02-06T10:45:41.749Z,6.35
2023-02-06T10:50:48.787Z,6.65
2023-02-06T10:55:57.501Z,6.86
2023-02-06T11:01:00.853Z,7.03
2023-02-06T11:06:05.379Z,6.98
2023-02-06T11:11:21.750Z,7.01
2023-02-06T11:16:29.322Z,7.19
2023-02-06T11:21:42.205Z,7.32
2023-02-06T11:26:51.276Z,7.57
2023-02-06T11:31:58.757Z,7.36
2023-02-06T11:37:08.971Z,7.14
2023-02-06T11:42:22.415Z,7.06
2023-02-06T11:47:35.064Z,6.89
2023-02-06T11:52:42.197Z,6.93
2023-02-06T11:57:47.030Z,6.75
2023-02-06T12:02:55.613Z,6.52
2023-02-06T12:08:05.614Z,6.42
2023-02-06T12:13:24.825Z,6.39
2023-02-06T12:18:37.578Z,6.41
2023-02-06T12:23:53.337Z,6.45
2023-02-06T12:29:12.130Z,6.70
2023-02-06T12:34:23.027Z,6.61
2023-02-06T12:39:25.724Z,6.47
2023-02-06T12:44:48.192Z,6.57
2023-02-06T12:50:14.279Z,6.62
2023-02-06T12:55:22.951Z,6.64
2023-02-06T13:00:48.925Z,6.99
2023-02-06T13:05:56.576Z,7.14
2023-02-06T13:11:04.490Z,7.05
2023-02-06T13:16:10.723Z,6.93
2023-02-06T13:21:29.733Z,6.84
2023-02-06T13:26:48.801Z,6.85
2023-02-06T13:32:10.543Z,6.82
2023-02-06T13:37:34.202Z,6.88
2023-02-06T13:43:03.549Z,6.91
2023-02-06T13:48:45.041Z,6.81
2023-02-06T13:54:18.428Z,6.79
2023-02-06T13:59:34.050Z,6.77
2023-02-06T14:04:37.500Z,6.72
2023-02-06T14:09:52.957Z,6.66
2023-02-06T14:15:07.510Z,6.66
2023-02-06T14:20:23.007Z,6.58
2023-02-06T14:25:39.566Z,6.59
2023-02-06T14:30:59.305Z,6.60
2023-02-06T14:36:08.084Z,6.55
2023-02-06T14:41:10.258Z,6.48
2023-02-06T14:46:18.562Z,6.46
2023-02-06T14:51:29.436Z,6.46
2023-02-06T14:56:38.819Z,6.34
2023-02-06T15:01:41.437Z,6.22
2023-02-06T15:06:53.249Z,6.06
2023-02-06T15:12:03.037Z,5.97
2023-02-06T15:17:19.406Z,5.94
2023-02-06T15:22:28.003Z,5.86
2023-02-06T15:27:34.063Z,5.84
2023-02-06T15:32:39.488Z,5.82
2023-02-06T15:37:46.629Z,5.78
2023-02-06T15:42:49.053Z,5.71
2023-02-06T15:47:55.358Z,5.66
2023-02-06T15:53:07.216Z,5.51
2023-02-06T15:58:14.589Z,5.07
2023-02-06T16:03:19.297Z,4.73
2023-02-06T16:08:32.104Z,4.50
2023-02-06T16:13:48.022Z,4.36
2023-02-06T16:18:56.278Z,4.23
2023-02-06T16:24:03.274Z,4.13
2023-02-06T16:29:11.356Z,4.08
2023-02-06T16:34:36.772Z,4.01
2023-02-06T16:39:42.246Z,3.90
2023-02-06T16:44:50.070Z,3.81
2023-02-06T16:49:52.350Z,3.74
2023-02-06T16:54:59.404Z,3.63
2023-02-06T17:00:03.516Z,3.53
2023-02-06T17:05:07.697Z,3.49
2023-02-06T17:10:19.591Z,3.39
2023-02-06T17:15:21.490Z,3.27
2023-02-06T17:20:31.113Z,3.25
2023-02-06T17:25:37.978Z,3.16
2023-02-06T17:30:40.996Z,3.04
2023-02-06T17:35:43.555Z,2.96
2023-02-06T17:40:47.770Z,2.82
2023-02-06T17:45:49.511Z,2.77
2023-02-06T17:50:56.988Z,2.76
2023-02-06T17:56:06.948Z,2.68
2023-02-06T18:01:14.009Z,2.60
2023-02-06T18:06:16.356Z,2.39
2023-02-06T18:11:23.245Z,2.30
2023-02-06T18:16:27.232Z,2.12
2023-02-06T18:21:30.969Z,1.93
2023-02-06T18:26:35.807Z,1.78
2023-02-06T18:31:41.245Z,1.60
2023-02-06T18:36:47.978Z,1.51
2023-02-06T18:42:10.485Z,1.49
2023-02-06T18:47:15.964Z,1.41
2023-02-06T18:52:19.933Z,1.35
2023-02-06T18:57:21.686Z,1.37
2023-02-06T19:02:26.424Z,1.44
2023-02-06T19:07:28.724Z,1.47
2023-02-06T19:12:33.036Z,1.49
2023-02-06T19:17:38.006Z,1.54
2023-02-06T19:22:44.272Z,1.59
2023-02-06T19:27:50.799Z,1.60
2023-02-06T19:32:54.117Z,1.50
2023-02-06T19:38:01.862Z,1.40
2023-02-06T19:43:07.574Z,1.37
2023-02-06T19:48:14.668Z,1.37
2023-02-06T19:53:16.987Z,1.32
2023-02-06T19:58:18.895Z,1.23
2023-02-06T20:03:22.732Z,1.23
2023-02-06T20:08:24.684Z,1.21
2023-02-06T20:13:30.516Z,1.21
2023-02-06T20:18:39.737Z,1.14
2023-02-06T20:23:42.878Z,1.05
2023-02-06T20:28:47.235Z,1.03
2023-02-06T20:33:51.396Z,1.06
2023-02-06T20:38:59.731Z,1.01
2023-02-06T20:44:04.029Z,0.92
2023-02-06T20:49:11.098Z,0.87
2023-02-06T20:54:14.973Z,0.85
2023-02-06T20:59:21.881Z,0.85
2023-02-06T21:04:25.876Z,0.86
2023-02-06T21:09:29.168Z,0.87
2023-02-06T21:14:31.031Z,0.85
2023-02-06T21:19:35.681Z,0.86
2023-02-06T21:24:39.319Z,0.84
2023-02-06T21:29:42.124Z,0.77
2023-02-06T21:34:46.213Z,0.67
2023-02-06T21:39:52.851Z,0.63
2023-02-06T21:44:56.875Z,0.61
2023-02-06T21:49:59.487Z,0.59
2023-02-06T21:55:07.487Z,0.58
2023-02-06T22:00:12.430Z,0.55
2023-02-06T22:05:19.125Z,0.52
2023-02-06T22:10:20.785Z,0.52
2023-02-06T22:15:27.024Z,0.48
2023-02-06T22:20:33.526Z,0.47
2023-02-06T22:25:35.560Z,0.45
2023-02-06T22:30:40.878Z,0.47
2023-02-06T22:35:45.025Z,0.45
2023-02-06T22:40:47.144Z,0.39
2023-02-06T22:45:53.267Z,0.40
2023-02-06T22:51:06.694Z,0.44
2023-02-06T22:56:27.297Z,0.47
2023-02-06T23:01:35.373Z,0.47
2023-02-06T23:06:40.167Z,0.43
2023-02-06T23:11:42.077Z,0.31
2023-02-06T23:16:50.100Z,0.12
2023-02-06T23:21:59.151Z,-0.03
2023-02-06T23:27:03.404Z,-0.08
2023-02-06T23:32:05.525Z,-0.10
2023-02-06T23:37:12.191Z,-0.09
2023-02-06T23:42:14.415Z,-0.11
2023-02-06T23:47:20.878Z,-0.09
2023-02-06T23:52:25.284Z,-0.12
2023-02-06T23:57:29.691Z,-0.12
